Time;durP1;ratioP1;P1;durP2;ratioP2;P2;SDS_P1;SDS_P2;PMS_P1;PMS_P2;Temp;Humidity;BMP_temperature;BMP_pressure;BME280_temperature;BME280_humidity;BME280_pressure;Samples;Min_cycle;Max_cycle;Signal;HPM_P1;HPM_P2
2023/11/22 00:00:03;;;;;;;7.30;5.75;;;;;;;3.06;100.00;97482.25;1224529;75;2914749;-64
2023/11/22 00:02:38;;;;;;;9.50;8.50;;;;;;;2.74;100.00;97475.00;1223754;75;2918767;-65
2023/11/22 00:05:12;;;;;;;11.05;9.50;;;;;;;2.87;100.00;97477.78;1223932;75;2915748;-65
2023/11/22 00:07:44;;;;;;;8.60;7.70;;;;;;;2.89;100.00;97470.75;1223544;75;2916756;-63
2023/11/22 00:10:18;;;;;;;7.90;7.10;;;;;;;2.77;100.00;97479.59;1224406;75;2925274;-63
2023/11/22 00:12:50;;;;;;;7.10;6.10;;;;;;;2.89;100.00;97483.53;1223308;75;2918843;-63
2023/11/22 00:15:23;;;;;;;6.70;5.90;;;;;;;2.86;100.00;97478.94;1224124;75;2924959;-62
2023/11/22 00:18:03;;;;;;;5.70;5.15;;;;;;;2.83;100.00;97469.00;1223502;75;2942529;-63
2023/11/22 00:20:36;;;;;;;5.30;4.80;;;;;;;2.76;100.00;97472.66;1224186;75;2921855;-62
2023/11/22 00:23:09;;;;;;;5.95;5.45;;;;;;;2.73;100.00;97471.56;1224533;75;2918442;-63
2023/11/22 00:25:42;;;;;;;6.65;5.95;;;;;;;2.68;100.00;97469.38;1223691;75;2928367;-63
2023/11/22 00:28:14;;;;;;;5.60;5.00;;;;;;;2.66;100.00;97468.28;1224688;75;2919889;-63
2023/11/22 00:30:47;;;;;;;5.55;5.05;;;;;;;2.60;100.00;97465.38;1224185;75;2922535;-61
2023/11/22 00:33:22;;;;;;;5.00;4.50;;;;;;;2.63;100.00;97466.44;1223176;75;2922533;-62
2023/11/22 00:35:56;;;;;;;5.15;4.65;;;;;;;2.56;100.00;97473.56;1223150;75;2927750;-64
2023/11/22 00:38:29;;;;;;;5.40;4.85;;;;;;;2.56;100.00;97467.41;1224660;75;2919773;-62
2023/11/22 00:41:02;;;;;;;5.65;5.05;;;;;;;2.47;100.00;97469.94;1224844;75;2924958;-63
2023/11/22 00:43:35;;;;;;;5.15;4.65;;;;;;;2.42;100.00;97473.91;1223337;75;2925205;-63
2023/11/22 00:46:08;;;;;;;5.45;4.90;;;;;;;2.40;100.00;97484.38;1223852;75;2920767;-65
2023/11/22 00:48:44;;;;;;;6.15;5.50;;;;;;;2.16;100.00;97483.81;1224506;75;2918815;-63
2023/11/22 00:51:16;;;;;;;5.50;5.00;;;;;;;2.32;100.00;97483.81;1224518;75;2931450;-63
2023/11/22 00:53:49;;;;;;;4.75;4.25;;;;;;;2.33;100.00;97484.56;1224304;75;2923807;-63
2023/11/22 00:56:22;;;;;;;4.90;4.30;;;;;;;2.23;100.00;97491.00;1223898;75;2930775;-61
2023/11/22 00:58:55;;;;;;;5.15;4.65;;;;;;;2.18;100.00;97494.22;1221556;75;2967853;-62
2023/11/22 01:01:27;;;;;;;6.15;5.55;;;;;;;2.03;100.00;97499.19;1224363;75;2916671;-64
2023/11/22 01:04:03;;;;;;;8.80;7.25;;;;;;;1.99;100.00;97498.50;1223898;75;2914456;-62
2023/11/22 01:06:36;;;;;;;9.55;8.60;;;;;;;1.82;100.00;97498.50;1223650;75;2918663;-64
2023/11/22 01:09:09;;;;;;;8.45;7.60;;;;;;;1.85;100.00;97492.28;1223897;75;2921897;-63
2023/11/22 01:11:42;;;;;;;7.15;6.45;;;;;;;1.98;100.00;97505.88;1223272;75;2946936;-62
2023/11/22 01:14:15;;;;;;;7.00;6.05;;;;;;;1.97;100.00;97490.06;1223969;75;2925701;-61
2023/11/22 01:16:48;;;;;;;8.95;8.05;;;;;;;1.79;100.00;97501.28;1224195;67;2921736;-63
2023/11/22 01:19:23;;;;;;;10.70;8.70;;;;;;;1.79;100.00;97504.75;1224240;75;2916434;-60
2023/11/22 01:21:55;;;;;;;8.35;7.50;;;;;;;1.65;100.00;97513.91;1223792;75;2919165;-63
2023/11/22 01:24:29;;;;;;;7.40;6.70;;;;;;;1.72;100.00;97515.69;1223072;75;2935694;-64
2023/11/22 01:27:01;;;;;;;6.10;5.50;;;;;;;1.71;100.00;97514.19;1224025;75;2916732;-63
2023/11/22 01:29:34;;;;;;;6.90;6.15;;;;;;;1.69;100.00;97517.31;1224030;75;2922344;-63
2023/11/22 01:32:08;;;;;;;7.30;6.55;;;;;;;1.62;100.00;97520.16;1224175;75;2921550;-63
2023/11/22 01:34:43;;;;;;;8.65;6.45;;;;;;;1.55;100.00;97514.91;1224202;75;2923269;-65
2023/11/22 01:37:16;;;;;;;8.35;7.55;;;;;;;1.34;100.00;97520.75;1222664;75;2919830;-62
2023/11/22 01:39:48;;;;;;;9.80;8.80;;;;;;;1.46;100.00;97528.97;1223822;75;2926722;-63
2023/11/22 01:42:21;;;;;;;8.85;7.80;;;;;;;1.30;100.00;97526.25;1224103;75;2916107;-62
2023/11/22 01:44:55;;;;;;;10.60;9.50;;;;;;;1.22;100.00;97522.16;1223601;75;2923854;-65
2023/11/22 01:47:27;;;;;;;8.70;7.90;;;;;;;1.44;100.00;97522.47;1223709;75;2921054;-63
2023/11/22 01:50:04;;;;;;;8.55;7.75;;;;;;;1.37;100.00;97515.31;1224013;75;2921525;-64
2023/11/22 01:52:37;;;;;;;7.15;6.45;;;;;;;1.27;100.00;97514.34;1224442;75;2923098;-63
2023/11/22 01:55:12;;;;;;;7.35;6.65;;;;;;;1.31;100.00;97513.50;1224689;75;2920716;-64
2023/11/22 01:57:45;;;;;;;7.00;6.05;;;;;;;1.25;100.00;97515.91;1224211;75;2919008;-64
2023/11/22 02:00:18;;;;;;;7.80;7.00;;;;;;;1.02;100.00;97514.84;1223803;75;2922068;-63
2023/11/22 02:02:51;;;;;;;8.30;7.40;;;;;;;0.93;100.00;97509.22;1224608;75;2918858;-62
2023/11/22 02:05:27;;;;;;;8.60;7.70;;;;;;;0.99;100.00;97528.38;1223710;75;2920633;-63
2023/11/22 02:08:00;;;;;;;7.10;6.40;;;;;;;0.95;100.00;97525.00;1224704;75;2919549;-64
2023/11/22 02:10:33;;;;;;;7.40;6.70;;;;;;;0.90;100.00;97537.00;1223701;75;2920083;-61
2023/11/22 02:13:07;;;;;;;6.50;5.90;;;;;;;0.93;100.00;97530.03;1224083;75;2940535;-63
2023/11/22 02:15:41;;;;;;;6.25;5.65;;;;;;;0.95;100.00;97528.44;1223052;75;2921987;-63
2023/11/22 02:18:14;;;;;;;8.10;7.35;;;;;;;0.75;100.00;97533.06;1223774;75;2918124;-61
2023/11/22 02:20:49;;;;;;;8.35;7.10;;;;;;;0.85;100.00;97535.56;1223856;75;2920049;-62
2023/11/22 02:23:25;;;;;;;7.30;6.60;;;;;;;0.73;100.00;97533.47;1224028;75;2915803;-62
2023/11/22 02:25:58;;;;;;;8.00;7.20;;;;;;;0.67;100.00;97542.44;1223687;75;2935314;-60
2023/11/22 02:28:31;;;;;;;8.45;7.55;;;;;;;0.63;100.00;97545.22;1224118;75;2916200;-64
2023/11/22 02:31:03;;;;;;;10.15;9.15;;;;;;;0.25;100.00;97558.91;1222843;75;2917129;-64
2023/11/22 02:33:36;;;;;;;11.25;10.15;;;;;;;0.19;100.00;97555.91;1222274;75;2926792;-63
2023/11/22 02:36:12;;;;;;;9.85;8.85;;;;;;;0.35;100.00;97544.50;1223452;75;2918473;-61
2023/11/22 02:38:47;;;;;;;10.10;9.00;;;;;;;0.24;100.00;97543.94;1223219;75;2926938;-65
2023/11/22 02:41:20;;;;;;;9.70;8.80;;;;;;;0.30;100.00;97555.75;1224106;75;2921291;-64
2023/11/22 02:43:52;;;;;;;9.80;8.70;;;;;;;0.42;100.00;97555.16;1224214;75;2928389;-64
2023/11/22 02:46:26;;;;;;;8.05;7.25;;;;;;;0.64;100.00;97560.94;1223055;75;2917748;-63
2023/11/22 02:48:59;;;;;;;8.85;6.75;;;;;;;0.57;100.00;97558.38;1223684;75;2921845;-61
2023/11/22 02:51:31;;;;;;;7.85;7.05;;;;;;;0.44;100.00;97559.38;1224970;75;2918813;-65
2023/11/22 02:54:07;;;;;;;9.45;8.55;;;;;;;0.23;100.00;97558.53;1224264;75;2919342;-63
2023/11/22 02:56:40;;;;;;;8.80;7.95;;;;;;;0.27;100.00;97556.56;1223579;75;2915167;-63
2023/11/22 02:59:13;;;;;;;7.75;6.95;;;;;;;0.59;100.00;97547.94;1223280;75;2920647;-62
2023/11/22 03:01:46;;;;;;;5.70;5.20;;;;;;;0.55;100.00;97549.94;1222601;75;2926140;-65
2023/11/22 03:04:19;;;;;;;8.35;7.55;;;;;;;0.15;100.00;97557.16;1224080;75;2918685;-62
2023/11/22 03:06:51;;;;;;;7.95;7.15;;;;;;;0.35;100.00;97552.56;1224392;75;2925830;-63
2023/11/22 03:09:26;;;;;;;6.60;6.00;;;;;;;0.33;100.00;97548.78;1223276;75;2935087;-64
2023/11/22 03:11:59;;;;;;;5.70;5.10;;;;;;;0.48;100.00;97552.78;1223360;75;2919000;-62
2023/11/22 03:14:32;;;;;;;5.65;5.15;;;;;;;0.39;100.00;97549.84;1223766;75;2921708;-63
2023/11/22 03:17:05;;;;;;;5.60;5.00;;;;;;;0.31;100.00;97553.81;1223848;75;2921497;-61
2023/11/22 03:19:37;;;;;;;6.00;5.40;;;;;;;0.21;100.00;97550.13;1223927;75;2929483;-64
2023/11/22 03:22:10;;;;;;;5.35;4.85;;;;;;;0.22;100.00;97557.03;1224916;75;2924281;-62
2023/11/22 03:24:45;;;;;;;5.05;4.55;;;;;;;0.32;100.00;97555.34;1224232;75;2918234;-63
2023/11/22 03:27:18;;;;;;;4.90;4.40;;;;;;;0.28;100.00;97555.38;1223618;75;2921966;-64
2023/11/22 03:29:51;;;;;;;9.05;5.45;;;;;;;0.31;100.00;97561.88;1224998;75;2917793;-63
2023/11/22 03:32:23;;;;;;;6.85;6.15;;;;;;;0.29;100.00;97570.38;1223437;75;2919438;-61
2023/11/22 03:34:57;;;;;;;9.10;7.00;;;;;;;0.06;100.00;97575.72;1223713;75;2921432;-63
2023/11/22 03:37:29;;;;;;;7.05;6.35;;;;;;;0.21;100.00;97574.34;1223672;75;2924617;-64
2023/11/22 03:40:05;;;;;;;7.30;6.10;;;;;;;0.14;100.00;97567.13;1224155;75;2920866;-66
2023/11/22 03:42:41;;;;;;;8.20;6.90;;;;;;;-0.06;100.00;97574.38;1223779;75;2931178;-65
2023/11/22 03:45:14;;;;;;;8.95;7.15;;;;;;;-0.03;100.00;97579.69;1223856;75;2933404;-63
2023/11/22 03:47:47;;;;;;;6.85;6.15;;;;;;;0.13;100.00;97595.22;1223862;75;2928640;-64
2023/11/22 03:50:20;;;;;;;6.85;6.15;;;;;;;0.04;100.00;97600.34;1224056;75;2915914;-62
2023/11/22 03:52:53;;;;;;;6.35;5.30;;;;;;;0.20;100.00;97610.53;1223281;75;2920165;-61
2023/11/22 03:55:28;;;;;;;4.85;4.35;;;;;;;0.19;100.00;97603.59;1223182;75;2929343;-63
2023/11/22 03:58:01;;;;;;;4.95;4.45;;;;;;;0.00;100.00;97599.66;1224218;75;2915427;-64
2023/11/22 04:00:33;;;;;;;8.85;7.95;;;;;;;0.02;100.00;97610.00;1223539;75;2923139;-64
2023/11/22 04:03:06;;;;;;;7.50;6.75;;;;;;;0.00;100.00;97615.81;1223630;75;2924976;-64
2023/11/22 04:05:39;;;;;;;7.30;6.30;;;;;;;0.07;100.00;97607.59;1223818;75;2922886;-64
2023/11/22 04:08:11;;;;;;;6.65;5.90;;;;;;;-0.05;100.00;97608.94;1224262;75;2913304;-62
2023/11/22 04:10:47;;;;;;;7.50;5.95;;;;;;;-0.15;100.00;97609.84;1223593;75;2917690;-64
2023/11/22 04:13:20;;;;;;;6.15;5.50;;;;;;;-0.18;100.00;97613.34;1224139;75;2918105;-66
2023/11/22 04:15:53;;;;;;;5.85;5.25;;;;;;;0.05;100.00;97619.94;1223366;75;2923343;-64
2023/11/22 04:18:26;;;;;;;5.20;4.25;;;;;;;0.05;100.00;97612.66;1223295;75;2921822;-63
2023/11/22 04:21:01;;;;;;;4.75;4.10;;;;;;;-0.10;100.00;97622.84;1222648;75;2939464;-61
2023/11/22 04:23:34;;;;;;;4.60;3.95;;;;;;;-0.17;100.00;97617.53;1223786;75;2922769;-62
2023/11/22 04:26:09;;;;;;;5.05;3.90;;;;;;;-0.15;100.00;97620.59;1223538;75;2922048;-66
2023/11/22 04:28:41;;;;;;;5.60;4.15;;;;;;;-0.24;100.00;97625.72;1223040;75;2923166;-63
2023/11/22 04:31:15;;;;;;;4.15;3.45;;;;;;;-0.15;100.00;97630.59;1222737;75;2922797;-63
2023/11/22 04:33:47;;;;;;;3.70;3.20;;;;;;;-0.12;100.00;97635.94;1223481;75;2926944;-65
2023/11/22 04:36:21;;;;;;;3.70;2.40;;;;;;;-0.09;100.00;97645.91;1224838;75;2921674;-64
2023/11/22 04:38:54;;;;;;;2.70;2.30;;;;;;;-0.13;100.00;97661.31;1224201;75;2924934;-63
2023/11/22 04:41:29;;;;;;;2.95;2.60;;;;;;;-0.16;100.00;97662.13;1223639;75;2931258;-62
2023/11/22 04:44:02;;;;;;;3.15;2.45;;;;;;;-0.06;100.00;97668.53;1224208;75;2927730;-63
2023/11/22 04:46:35;;;;;;;2.35;2.00;;;;;;;-0.15;100.00;97674.41;1222943;75;2923192;-62
2023/11/22 04:49:07;;;;;;;3.25;2.25;;;;;;;-0.12;100.00;97668.25;1224050;75;2924711;-63
2023/11/22 04:51:41;;;;;;;1.90;1.60;;;;;;;-0.05;100.00;97668.16;1224009;75;2920563;-66
2023/11/22 04:54:14;;;;;;;2.70;2.05;;;;;;;-0.16;100.00;97682.91;1223951;75;2921799;-62
2023/11/22 04:56:49;;;;;;;2.30;2.10;;;;;;;-0.20;100.00;97688.31;1222907;75;2922386;-65
2023/11/22 04:59:22;;;;;;;3.80;2.80;;;;;;;-0.15;100.00;97690.53;1223679;75;2927192;-64
2023/11/22 05:01:56;;;;;;;3.35;2.85;;;;;;;-0.20;100.00;97688.31;1222923;75;2927717;-63
2023/11/22 05:04:29;;;;;;;6.70;4.90;;;;;;;-0.21;100.00;97681.41;1224569;75;2929938;-64
2023/11/22 05:07:03;;;;;;;5.25;4.30;;;;;;;-0.17;100.00;97697.50;1224219;75;2918656;-63
2023/11/22 05:09:35;;;;;;;6.25;5.60;;;;;;;-0.28;100.00;97701.09;1216252;75;3343586;-65
2023/11/22 05:12:11;;;;;;;7.40;6.60;;;;;;;-0.35;100.00;97693.09;1223330;75;2922358;-65
2023/11/22 05:14:45;;;;;;;7.10;5.60;;;;;;;-0.36;100.00;97698.88;1222839;75;2919524;-62
2023/11/22 05:17:18;;;;;;;8.65;7.15;;;;;;;-0.30;100.00;97700.72;1223003;75;2927787;-62
2023/11/22 05:19:51;;;;;;;8.95;6.65;;;;;;;-0.23;100.00;97706.00;1223999;75;2921199;-62
2023/11/22 05:22:24;;;;;;;7.70;6.30;;;;;;;-0.12;100.00;97713.19;1220734;75;3085127;-65
2023/11/22 05:24:56;;;;;;;17.35;12.50;;;;;;;-0.20;100.00;97717.91;1222510;75;2923810;-63
2023/11/22 05:27:32;;;;;;;14.25;10.60;;;;;;;-0.11;100.00;97720.88;1222909;75;2923937;-64
2023/11/22 05:30:05;;;;;;;13.05;8.20;;;;;;;-0.30;100.00;97724.94;1223128;75;2924024;-63
2023/11/22 05:32:38;;;;;;;10.85;7.95;;;;;;;-0.24;100.00;97728.72;1224173;75;2925106;-63
2023/11/22 05:35:12;;;;;;;8.80;6.90;;;;;;;-0.24;100.00;97730.63;1223575;75;2934974;-66
2023/11/22 05:37:44;;;;;;;10.10;7.95;;;;;;;-0.18;100.00;97739.78;1222706;75;2917695;-63
2023/11/22 05:40:17;;;;;;;12.75;7.25;;;;;;;-0.30;100.00;97737.63;1222363;75;2929787;-63
2023/11/22 05:42:52;;;;;;;10.40;7.45;;;;;;;-0.30;100.00;97745.69;1223467;75;2923150;-63
2023/11/22 05:45:25;;;;;;;8.85;6.60;;;;;;;-0.23;100.00;97751.00;1223047;75;2925625;-63
2023/11/22 05:47:58;;;;;;;8.70;6.40;;;;;;;-0.30;100.00;97746.44;1223768;75;2920677;-64
2023/11/22 05:50:30;;;;;;;6.75;5.55;;;;;;;-0.27;100.00;97761.78;1223065;75;2924280;-67
2023/11/22 05:53:03;;;;;;;7.00;5.40;;;;;;;-0.37;100.00;97762.66;1223705;75;2923864;-63
2023/11/22 05:55:37;;;;;;;7.20;5.60;;;;;;;-0.30;100.00;97770.66;1222942;75;2921879;-58
2023/11/22 05:58:13;;;;;;;5.20;4.40;;;;;;;-0.19;100.00;97767.09;1223128;75;2917453;-64
2023/11/22 06:00:46;;;;;;;8.05;5.40;;;;;;;-0.31;100.00;97771.81;1223252;75;2927793;-62
2023/11/22 06:03:18;;;;;;;6.90;5.25;;;;;;;-0.14;100.00;97774.75;1222047;75;2920648;-62
2023/11/22 06:05:51;;;;;;;4.95;4.45;;;;;;;-0.12;100.00;97781.25;1223867;75;2916654;-64
2023/11/22 06:08:24;;;;;;;6.35;5.00;;;;;;;-0.28;100.00;97775.66;1221572;75;2962933;-63
2023/11/22 06:10:58;;;;;;;5.65;4.50;;;;;;;-0.31;100.00;97774.53;1223613;75;2923732;-63
2023/11/22 06:13:33;;;;;;;6.20;4.75;;;;;;;-0.43;100.00;97778.47;1223199;75;2931289;-63
2023/11/22 06:16:06;;;;;;;8.00;4.50;;;;;;;-0.28;100.00;97794.47;1224248;75;2923288;-63
2023/11/22 06:18:40;;;;;;;5.00;4.20;;;;;;;-0.11;100.00;97792.75;1224072;75;2919516;-63
2023/11/22 06:21:13;;;;;;;6.60;3.75;;;;;;;-0.14;100.00;97798.94;1223767;75;2928823;-63
2023/11/22 06:23:45;;;;;;;3.60;2.90;;;;;;;-0.12;100.00;97800.06;1223181;75;2923458;-64
2023/11/22 06:26:19;;;;;;;4.30;3.55;;;;;;;-0.05;100.00;97812.66;1223990;75;2920677;-62
2023/11/22 06:28:55;;;;;;;4.80;3.50;;;;;;;-0.02;100.00;97811.91;1224698;75;2921807;-62
2023/11/22 06:31:28;;;;;;;4.85;3.55;;;;;;;0.03;100.00;97819.53;1223832;75;2941421;-60
2023/11/22 06:34:01;;;;;;;4.70;3.30;;;;;;;-0.10;100.00;97829.25;1223653;75;2922761;-62
2023/11/22 06:36:34;;;;;;;4.30;3.90;;;;;;;0.14;100.00;97832.84;1223361;75;2926774;-60
2023/11/22 06:39:09;;;;;;;6.65;4.50;;;;;;;-0.05;100.00;97842.28;1223438;75;2932099;-63
2023/11/22 06:41:41;;;;;;;4.55;3.60;;;;;;;0.24;100.00;97836.59;1224748;75;2923645;-62
2023/11/22 06:44:16;;;;;;;4.65;3.75;;;;;;;0.23;100.00;97841.22;1224552;75;2921368;-64
2023/11/22 06:46:49;;;;;;;4.40;3.15;;;;;;;0.26;100.00;97848.50;1223994;75;2924275;-64
2023/11/22 06:49:22;;;;;;;4.05;3.15;;;;;;;0.28;100.00;97851.53;1224536;75;2920442;-65
2023/11/22 06:51:56;;;;;;;2.60;2.35;;;;;;;0.28;100.00;97851.53;1202438;75;3918841;-62
2023/11/22 06:54:28;;;;;;;3.70;2.65;;;;;;;0.31;100.00;97858.81;1223418;75;2927391;-62
2023/11/22 06:57:01;;;;;;;4.05;2.85;;;;;;;0.48;100.00;97857.09;1224045;75;2923695;-64
2023/11/22 06:59:37;;;;;;;2.65;2.20;;;;;;;0.52;100.00;97857.81;1223851;75;2922881;-62
2023/11/22 07:02:10;;;;;;;4.40;2.70;;;;;;;0.56;100.00;97865.88;1223427;75;2920874;-63
2023/11/22 07:04:43;;;;;;;3.30;2.75;;;;;;;0.82;100.00;97872.47;1224032;75;2925272;-64
2023/11/22 07:07:16;;;;;;;5.10;2.60;;;;;;;2.20;100.00;97878.06;1218776;75;3067148;-62
2023/11/22 07:09:49;;;;;;;2.95;2.45;;;;;;;3.05;100.00;97869.41;1223093;75;2926488;-62
2023/11/22 07:12:22;;;;;;;4.25;3.05;;;;;;;2.25;100.00;97877.56;1223918;75;2924743;-62
2023/11/22 07:14:57;;;;;;;5.30;3.80;;;;;;;3.29;100.00;97887.03;1224151;75;2924951;-62
2023/11/22 07:17:33;;;;;;;4.30;3.40;;;;;;;2.56;100.00;97887.00;1222761;75;2919241;-64
2023/11/22 07:20:09;;;;;;;4.40;2.90;;;;;;;2.42;100.00;97883.81;1223246;75;2920941;-65
2023/11/22 07:22:43;;;;;;;5.00;2.90;;;;;;;2.21;100.00;97883.03;1224556;75;2919928;-62
2023/11/22 07:25:17;;;;;;;5.00;2.65;;;;;;;2.03;100.00;97890.69;1223442;75;2922602;-63
2023/11/22 07:27:50;;;;;;;7.70;4.90;;;;;;;1.26;100.00;97900.38;1223566;75;2943744;-62
2023/11/22 07:30:29;;;;;;;7.65;6.10;;;;;;;1.21;100.00;97896.19;1224529;75;2922152;-63
2023/11/22 07:33:02;;;;;;;11.95;6.65;;;;;;;1.63;100.00;97894.03;1224076;75;2924244;-62
2023/11/22 07:35:35;;;;;;;16.25;6.90;;;;;;;3.36;100.00;97900.41;1224153;75;2924402;-64
2023/11/22 07:38:08;;;;;;;12.35;7.15;;;;;;;5.10;100.00;97901.75;1224906;75;2922125;-65
2023/11/22 07:40:41;;;;;;;9.70;6.35;;;;;;;6.47;100.00;97911.81;1224335;75;2921757;-66
2023/11/22 07:43:14;;;;;;;10.00;5.65;;;;;;;6.92;100.00;97904.38;1225053;75;2914611;-65
2023/11/22 07:45:50;;;;;;;11.30;7.90;;;;;;;5.39;100.00;97919.91;1224495;75;2923500;-62
2023/11/22 07:48:23;;;;;;;9.55;7.10;;;;;;;5.85;100.00;97914.22;1224681;75;2919143;-63
2023/11/22 07:50:56;;;;;;;9.15;6.40;;;;;;;5.34;100.00;97920.44;1224577;75;2928017;-65
2023/11/22 07:53:29;;;;;;;6.90;5.85;;;;;;;5.21;100.00;97922.38;1224664;75;2925775;-64
2023/11/22 07:56:04;;;;;;;9.10;6.05;;;;;;;4.99;100.00;97930.38;1224595;75;2926653;-62
2023/11/22 07:58:37;;;;;;;8.20;6.30;;;;;;;4.15;100.00;97941.13;1223084;75;2931790;-63
2023/11/22 08:01:13;;;;;;;10.95;5.60;;;;;;;3.90;100.00;97942.50;1224873;75;2931820;-66
2023/11/22 08:03:46;;;;;;;11.70;6.80;;;;;;;3.33;100.00;97946.50;1224851;75;2926579;-64
2023/11/22 08:06:20;;;;;;;10.25;7.60;;;;;;;3.42;100.00;97939.31;1224710;75;2921461;-64
2023/11/22 08:08:53;;;;;;;9.40;7.40;;;;;;;3.83;100.00;97943.41;1223946;75;2918781;-64
2023/11/22 08:11:27;;;;;;;20.70;12.20;;;;;;;3.27;100.00;97946.25;1214895;75;3493014;-63
2023/11/22 08:14:00;;;;;;;24.10;14.55;;;;;;;3.71;100.00;97948.75;1223170;75;2917291;-63
2023/11/22 08:16:38;;;;;;;16.30;9.40;;;;;;;3.79;100.00;97947.41;1223626;75;2937786;-63
2023/11/22 08:19:11;;;;;;;10.40;6.00;;;;;;;4.35;100.00;97949.88;1223671;75;2919668;-66
2023/11/22 08:21:44;;;;;;;21.40;12.00;;;;;;;4.16;100.00;97946.13;1223870;75;2922308;-67
2023/11/22 08:24:18;;;;;;;17.80;10.25;;;;;;;4.44;100.00;97946.56;1223987;75;2927833;-65
2023/11/22 08:26:52;;;;;;;10.40;8.10;;;;;;;4.48;100.00;97944.53;1223917;75;2924006;-61
2023/11/22 08:29:25;;;;;;;11.20;7.70;;;;;;;4.18;100.00;97953.81;1223778;75;2929221;-65
2023/11/22 08:32:01;;;;;;;10.20;7.60;;;;;;;4.46;100.00;97949.63;1223562;75;2933390;-64
2023/11/22 08:34:34;;;;;;;13.85;8.30;;;;;;;4.63;100.00;97950.34;1211031;75;3921758;-62
2023/11/22 08:37:07;;;;;;;8.40;6.90;;;;;;;5.16;100.00;97950.81;1221626;75;3087784;-65
2023/11/22 08:39:40;;;;;;;8.50;7.40;;;;;;;5.36;100.00;97947.91;1223532;75;2920601;-64
2023/11/22 08:42:13;;;;;;;10.90;7.35;;;;;;;5.11;100.00;97957.53;1221060;75;2947489;-65
2023/11/22 08:44:46;;;;;;;13.15;8.15;;;;;;;5.53;100.00;97949.34;1223833;75;2927070;-63
2023/11/22 08:47:21;;;;;;;10.70;7.70;;;;;;;6.29;100.00;97963.31;1223802;75;2922129;-63
2023/11/22 08:49:53;;;;;;;10.05;6.40;;;;;;;6.38;100.00;97983.19;1223286;75;2924696;-64
2023/11/22 08:52:26;;;;;;;9.55;7.45;;;;;;;6.47;100.00;97977.06;1223136;75;2922710;-63
2023/11/22 08:55:00;;;;;;;9.10;7.40;;;;;;;7.37;100.00;97982.84;1224955;75;2925002;-65
2023/11/22 08:57:33;;;;;;;8.10;5.95;;;;;;;8.16;91.77;97973.63;1223652;75;2918924;-66
2023/11/22 09:00:10;;;;;;;7.90;6.25;;;;;;;8.18;91.55;97971.94;1221836;75;2920886;-64
2023/11/22 09:02:45;;;;;;;8.00;5.75;;;;;;;8.70;85.11;97975.66;1223165;75;2937480;-65
2023/11/22 09:05:21;;;;;;;8.80;5.75;;;;;;;9.39;83.01;97979.66;1223844;75;2924021;-64
2023/11/22 09:07:55;;;;;;;8.55;6.20;;;;;;;9.84;78.01;97992.88;1225009;75;2858470;-63
2023/11/22 09:10:28;;;;;;;14.00;7.85;;;;;;;10.13;76.46;97976.63;1224035;75;2924246;-66
2023/11/22 09:13:01;;;;;;;9.80;6.30;;;;;;;10.59;75.51;97981.09;1223934;75;2916439;-65
2023/11/22 09:15:35;;;;;;;10.90;6.55;;;;;;;11.32;74.38;97978.94;1223552;75;2922485;-65
2023/11/22 09:18:10;;;;;;;8.30;6.20;;;;;;;11.30;73.74;97976.66;1224172;75;2927059;-63
2023/11/22 09:20:45;;;;;;;11.25;7.60;;;;;;;10.44;77.00;97970.09;1223271;75;2930164;-63
2023/11/22 09:23:18;;;;;;;10.40;7.80;;;;;;;10.56;76.23;97973.78;1224197;75;2928605;-64
2023/11/22 09:25:53;;;;;;;11.20;8.20;;;;;;;9.90;80.05;97971.91;1223493;75;2926943;-64
2023/11/22 09:28:25;;;;;;;10.95;8.05;;;;;;;10.51;77.55;97969.75;1224010;75;2920716;-63
2023/11/22 09:31:05;;;;;;;9.25;6.95;;;;;;;11.39;75.63;97971.06;1223554;75;2922843;-65
2023/11/22 09:33:40;;;;;;;9.45;5.95;;;;;;;11.65;73.20;97967.75;1224073;75;2925782;-63
2023/11/22 09:36:14;;;;;;;7.90;4.90;;;;;;;10.74;76.53;97970.91;1224758;75;2919770;-68
2023/11/22 09:38:47;;;;;;;7.65;5.70;;;;;;;11.00;73.44;97973.91;1224086;75;2924757;-63
2023/11/22 09:41:21;;;;;;;9.80;5.10;;;;;;;12.54;68.90;97979.22;1224106;75;2923927;-65
2023/11/22 09:43:53;;;;;;;7.50;5.00;;;;;;;12.27;69.86;97982.38;1224530;75;2922221;-64
2023/11/22 09:46:27;;;;;;;5.20;3.90;;;;;;;11.50;71.83;97984.22;1223969;75;2925419;-66
2023/11/22 09:49:03;;;;;;;7.05;4.45;;;;;;;12.27;71.17;97976.91;1223625;75;2923571;-63
2023/11/22 09:51:40;;;;;;;6.35;3.85;;;;;;;12.93;68.53;97969.91;1224655;75;2922729;-64
2023/11/22 09:54:14;;;;;;;5.35;3.70;;;;;;;12.54;68.10;97981.22;1224890;75;2915604;-65
2023/11/22 09:56:50;;;;;;;8.55;4.60;;;;;;;13.59;66.60;97979.31;1223637;75;2925244;-63
2023/11/22 09:59:25;;;;;;;7.50;4.65;;;;;;;13.56;66.04;97981.00;1222121;75;2921073;-63
2023/11/22 10:01:59;;;;;;;6.20;4.35;;;;;;;12.39;68.35;97983.25;1224346;75;2923925;-66
2023/11/22 10:04:35;;;;;;;6.15;4.35;;;;;;;13.05;67.79;97981.78;1223830;75;2960311;-64
2023/11/22 10:07:09;;;;;;;10.60;6.25;;;;;;;12.22;67.93;97985.78;1223945;75;2922886;-64
2023/11/22 10:09:41;;;;;;;10.30;5.85;;;;;;;12.65;69.02;97984.13;1221679;75;2925290;-64
2023/11/22 10:12:17;;;;;;;6.85;5.60;;;;;;;12.61;69.71;97986.31;1199309;75;4832988;-64
2023/11/22 10:14:50;;;;;;;7.85;5.55;;;;;;;12.15;70.38;97995.94;1223427;75;2961320;-63
2023/11/22 10:17:23;;;;;;;7.25;5.10;;;;;;;13.07;69.21;97998.53;1224454;75;2928748;-63
2023/11/22 10:19:59;;;;;;;9.00;4.50;;;;;;;14.32;65.41;98001.81;1223400;75;2928911;-63
2023/11/22 10:22:32;;;;;;;6.25;4.60;;;;;;;14.57;62.45;97996.69;1223948;75;2920140;-63
2023/11/22 10:25:07;;;;;;;5.05;4.00;;;;;;;13.86;65.80;98005.53;1223629;75;2924245;-62
2023/11/22 10:27:42;;;;;;;6.70;4.40;;;;;;;12.99;66.78;98003.72;1224415;75;2926716;-64
2023/11/22 10:30:16;;;;;;;4.80;3.45;;;;;;;13.59;65.02;98007.56;1222500;75;2923497;-66
2023/11/22 10:32:49;;;;;;;5.75;3.55;;;;;;;14.32;63.72;98010.06;1224217;75;2926331;-63
2023/11/22 10:35:25;;;;;;;4.95;2.95;;;;;;;13.78;63.06;98012.69;1223696;75;2915688;-63
2023/11/22 10:37:57;;;;;;;12.25;3.75;;;;;;;14.53;61.98;98015.41;1219581;75;3214535;-64
2023/11/22 10:40:31;;;;;;;6.30;5.00;;;;;;;14.76;61.03;98006.03;1223450;75;2935950;-62
2023/11/22 10:43:05;;;;;;;4.30;3.05;;;;;;;13.54;64.78;98011.03;1223460;75;2935325;-65
2023/11/22 10:45:38;;;;;;;4.15;3.00;;;;;;;14.61;63.13;98010.97;1224336;75;2919141;-66
2023/11/22 10:48:12;;;;;;;3.50;2.45;;;;;;;14.31;61.25;98016.84;1223801;75;2915457;-63
2023/11/22 10:50:48;;;;;;;4.45;2.95;;;;;;;14.01;63.29;98019.88;1223530;75;2932215;-64
2023/11/22 10:53:25;;;;;;;3.10;2.55;;;;;;;14.75;61.55;98017.56;1224126;75;2923012;-65
2023/11/22 10:56:11;;;;;;;5.70;2.90;;;;;;;14.24;62.76;98031.81;1224276;75;2919072;-66
2023/11/22 10:58:51;;;;;;;3.40;2.60;;;;;;;14.64;62.43;98027.28;1222080;75;2918447;-62
2023/11/22 11:01:29;;;;;;;3.50;2.50;;;;;;;14.63;63.31;98031.28;1224148;75;2925035;-64
2023/11/22 11:04:06;;;;;;;5.50;2.80;;;;;;;14.47;62.03;98035.44;1224234;75;2918855;-63
2023/11/22 11:06:43;;;;;;;3.20;2.90;;;;;;;13.22;64.33;98038.44;1224701;75;2921971;-64
2023/11/22 11:09:21;;;;;;;4.80;2.95;;;;;;;13.15;65.59;98038.84;1223801;75;2924889;-66
2023/11/22 11:11:53;;;;;;;3.90;3.10;;;;;;;14.13;64.62;98045.50;1224026;75;2952377;-66
2023/11/22 11:14:27;;;;;;;3.90;2.95;;;;;;;13.85;64.46;98053.53;1223577;75;2920408;-64
2023/11/22 11:17:01;;;;;;;2.90;2.05;;;;;;;14.48;62.55;98053.47;1223432;75;2945267;-65
2023/11/22 11:19:33;;;;;;;2.25;2.00;;;;;;;15.00;60.78;98035.94;1224565;75;2916796;-65
2023/11/22 11:22:13;;;;;;;3.60;2.30;;;;;;;16.45;58.66;98044.81;1224308;75;2920714;-64
2023/11/22 11:24:51;;;;;;;3.30;2.20;;;;;;;16.35;56.78;98044.31;1224051;75;2918291;-64
2023/11/22 11:27:23;;;;;;;2.70;1.90;;;;;;;17.45;56.08;98042.88;1224546;75;2919736;-64
2023/11/22 11:29:57;;;;;;;2.50;1.75;;;;;;;17.41;55.08;98044.41;1223607;75;2923947;-64
2023/11/22 11:32:36;;;;;;;4.40;3.40;;;;;;;16.07;57.01;98049.16;1224161;75;2929755;-65
2023/11/22 11:35:10;;;;;;;4.15;2.10;;;;;;;17.84;53.27;98044.63;1224172;75;2917899;-67
2023/11/22 11:37:49;;;;;;;2.35;1.50;;;;;;;18.64;51.82;98052.94;1223566;75;2941677;-66
2023/11/22 11:40:35;;;;;;;3.20;2.20;;;;;;;17.87;52.69;98042.84;1224473;75;2919743;-64
2023/11/22 11:43:09;;;;;;;1.90;1.50;;;;;;;18.98;50.28;98044.25;1223773;75;2919814;-67